Avon, Iowa
Current Conditions -  °F | °C
As of 11:54 AM on Friday 31 Oct 2014 (Local Time) from KDSM Reporting Station
Clear Clear  
Wind Chill: -1°   Ceiling: Unl
Heat Index:   Visibility: 10mi
Dew Point: -7°   Wind: 12mph
Humidity: 48%   Direction: 350°N
Pressure: 30.51"   Gusts: NA
Location:  41.4707°N, 93.4797°W
Report Text: KDSM 311654Z 35010KT 10SM CLR 03/M07 A3051 RMK AO2 SLP339 T00331067
Loading
Personal Weather Stations






























Interactive Weather Map
Tropical Storm Tracking
New forecast layout! Learn more

10-Day Weather Forecast

Advertisements
Track Severe Weather on mobile